Terminal Aerodrome Forecast
Issued by NWS

Home | Current Version | Previous Version | Text Only | Print | Product List | Glossary Off
Versions: 1 2 3 4 5 6 7 8 9 10 11 12 13 14 15 16 17

000
FTUS43 KICT 241100
TAFRSL
TAF
KRSL 241138Z 2412/2512 15007KT P6SM SKC
     FM241400 16012KT P6SM SKC
     FM241600 17015G22KT P6SM FEW060
     FM241800 18020G30KT P6SM FEW070
     FM250100 17012KT P6SM BKN250=

USA.gov is the U.S. government's official web portal to all federal, state and local government web resources and services.